Time;durP1;ratioP1;P1;durP2;ratioP2;P2;SDS_P1;SDS_P2;PMS_P1;PMS_P2;Temp;Humidity;BMP_temperature;BMP_pressure;BME280_temperature;BME280_humidity;BME280_pressure;Samples;Min_cycle;Max_cycle;Signal;HPM_P1;HPM_P2
2023/10/03 00:00:52;;;;;;;;;;;22.10;56.30;;;;;;1542718;75;2015;-58
2023/10/03 00:02:56;;;;;;;;;;;22.10;56.20;;;;;;1544616;75;794;-56
2023/10/03 00:04:58;;;;;;;;;;;22.10;56.10;;;;;;1547383;75;847;-59
2023/10/03 00:07:01;;;;;;;;;;;22.10;56.50;;;;;;1548991;76;742;-56
2023/10/03 00:09:02;;;;;;;;;;;22.10;56.40;;;;;;1548324;75;722;-54
2023/10/03 00:11:05;;;;;;;;;;;22.10;55.90;;;;;;1550348;75;1150;-58
2023/10/03 00:13:11;;;;;;;;;;;22.10;55.50;;;;;;1544142;75;1912;-59
2023/10/03 00:15:13;;;;;;;;;;;22.10;55.50;;;;;;1549014;76;1560;-60
2023/10/03 00:17:15;;;;;;;;;;;22.10;55.00;;;;;;1548361;75;722;-56
2023/10/03 00:19:16;;;;;;;;;;;22.10;54.80;;;;;;1546994;75;735;-57
2023/10/03 00:21:18;;;;;;;;;;;22.10;54.60;;;;;;1544098;75;1146;-58
2023/10/03 00:23:20;;;;;;;;;;;22.10;54.60;;;;;;1545328;76;802;-58
2023/10/03 00:25:24;;;;;;;;;;;22.10;54.50;;;;;;1552302;76;747;-59
2023/10/03 00:27:25;;;;;;;;;;;22.00;54.90;;;;;;1547601;75;770;-56
2023/10/03 00:29:29;;;;;;;;;;;22.10;55.50;;;;;;1539833;75;1555;-57
2023/10/03 00:31:31;;;;;;;;;;;22.10;55.50;;;;;;1548439;75;1994;-57
2023/10/03 00:33:33;;;;;;;;;;;22.00;55.50;;;;;;1548246;76;1932;-59
2023/10/03 00:35:35;;;;;;;;;;;22.10;55.10;;;;;;1547840;75;737;-58
2023/10/03 00:37:37;;;;;;;;;;;22.00;54.90;;;;;;1546958;75;794;-56
2023/10/03 00:39:39;;;;;;;;;;;22.00;54.80;;;;;;1550044;75;780;-56
2023/10/03 00:41:43;;;;;;;;;;;22.10;55.00;;;;;;1546600;75;1153;-56
2023/10/03 00:43:54;;;;;;;;;;;22.10;55.20;;;;;;1546661;75;1593;-60
2023/10/03 00:45:56;;;;;;;;;;;22.00;55.00;;;;;;1546873;76;744;-55
2023/10/03 00:47:58;;;;;;;;;;;22.00;55.40;;;;;;1546686;76;832;-59
2023/10/03 00:50:00;;;;;;;;;;;22.10;55.50;;;;;;1548358;76;709;-59
2023/10/03 00:52:05;;;;;;;;;;;22.10;55.20;;;;;;1543471;75;1162;-57
2023/10/03 00:54:06;;;;;;;;;;;22.00;55.30;;;;;;1552282;75;1921;-59
2023/10/03 00:56:09;;;;;;;;;;;22.10;55.20;;;;;;1546727;75;1039;-59
2023/10/03 01:00:16;;;;;;;;;;;22.10;55.50;;;;;;1546834;75;1166;-57
2023/10/03 01:02:21;;;;;;;;;;;22.10;55.60;;;;;;1550995;75;707;-59
2023/10/03 01:04:22;;;;;;;;;;;22.10;55.70;;;;;;1550755;75;1506;-59
2023/10/03 01:06:25;;;;;;;;;;;22.10;56.20;;;;;;1570184;74;1329;-60
2023/10/03 01:08:29;;;;;;;;;;;22.10;56.50;;;;;;1546228;75;730;-56
2023/10/03 01:10:32;;;;;;;;;;;22.10;56.80;;;;;;1549951;75;1702;-59
2023/10/03 01:12:35;;;;;;;;;;;22.10;56.80;;;;;;1544242;75;1532;-56
2023/10/03 01:14:39;;;;;;;;;;;22.20;56.40;;;;;;1539882;75;1936;-57
2023/10/03 01:16:41;;;;;;;;;;;22.10;56.50;;;;;;1547368;75;1711;-61
2023/10/03 01:18:43;;;;;;;;;;;22.10;56.30;;;;;;1544686;75;697;-58
2023/10/03 01:20:48;;;;;;;;;;;22.10;56.40;;;;;;1547456;75;1150;-60
2023/10/03 01:22:49;;;;;;;;;;;22.10;56.60;;;;;;1546563;75;1648;-59
2023/10/03 01:24:51;;;;;;;;;;;22.10;56.30;;;;;;1550424;75;647;-56
2023/10/03 01:26:53;;;;;;;;;;;22.10;56.30;;;;;;1550293;75;698;-60
2023/10/03 01:28:56;;;;;;;;;;;22.10;56.10;;;;;;1550059;76;778;-58
2023/10/03 01:30:57;;;;;;;;;;;22.10;56.70;;;;;;1546815;75;1158;-60
2023/10/03 01:32:59;;;;;;;;;;;22.10;56.10;;;;;;1543763;75;741;-58
2023/10/03 01:35:03;;;;;;;;;;;22.10;56.10;;;;;;1545560;75;1939;-58
2023/10/03 01:37:05;;;;;;;;;;;22.10;56.10;;;;;;1545526;76;674;-58
2023/10/03 01:39:06;;;;;;;;;;;22.10;56.00;;;;;;1550824;75;1293;-58
2023/10/03 01:41:08;;;;;;;;;;;22.10;56.10;;;;;;1549431;75;1126;-60
2023/10/03 01:43:10;;;;;;;;;;;22.10;55.70;;;;;;1540825;75;737;-60
2023/10/03 01:45:17;;;;;;;;;;;22.20;55.60;;;;;;1546034;75;731;-57
2023/10/03 01:47:19;;;;;;;;;;;22.10;55.70;;;;;;1547272;75;1072;-55
2023/10/03 01:49:21;;;;;;;;;;;22.20;55.60;;;;;;1546823;75;791;-59
2023/10/03 01:51:23;;;;;;;;;;;22.10;55.70;;;;;;1539706;75;1186;-58
2023/10/03 01:53:25;;;;;;;;;;;22.10;56.10;;;;;;1537843;75;1944;-57
2023/10/03 01:55:27;;;;;;;;;;;22.10;56.30;;;;;;1540650;76;751;-60
2023/10/03 01:57:29;;;;;;;;;;;22.10;56.10;;;;;;1532600;75;716;-59
2023/10/03 01:59:30;;;;;;;;;;;22.10;56.30;;;;;;1537585;75;682;-57
2023/10/03 02:01:37;;;;;;;;;;;22.20;56.30;;;;;;1545040;75;1146;-57
2023/10/03 02:03:37;;;;;;;;;;;22.10;56.50;;;;;;1541533;75;1098;-60
2023/10/03 02:05:43;;;;;;;;;;;22.20;56.40;;;;;;1546923;76;732;-58
2023/10/03 02:07:43;;;;;;;;;;;22.10;56.10;;;;;;1547287;76;1511;-58
2023/10/03 02:09:46;;;;;;;;;;;22.10;56.00;;;;;;1553771;75;753;-58
2023/10/03 02:11:48;;;;;;;;;;;22.10;56.20;;;;;;1552809;75;1150;-59
2023/10/03 02:13:50;;;;;;;;;;;22.10;56.10;;;;;;1548459;75;1939;-59
2023/10/03 02:15:53;;;;;;;;;;;22.10;56.30;;;;;;1547009;75;738;-57
2023/10/03 02:17:56;;;;;;;;;;;22.10;56.00;;;;;;1547636;75;734;-61
2023/10/03 02:19:59;;;;;;;;;;;22.20;56.00;;;;;;1549558;75;709;-57
2023/10/03 02:22:01;;;;;;;;;;;22.10;55.70;;;;;;1553700;75;1475;-61
2023/10/03 02:24:03;;;;;;;;;;;22.10;55.80;;;;;;1548861;75;711;-60
2023/10/03 02:26:10;;;;;;;;;;;22.10;56.20;;;;;;1544781;75;719;-58
2023/10/03 02:28:14;;;;;;;;;;;22.10;55.50;;;;;;1551830;75;812;-60
2023/10/03 02:30:19;;;;;;;;;;;22.10;55.20;;;;;;1551232;75;1691;-57
2023/10/03 02:32:19;;;;;;;;;;;22.10;55.30;;;;;;1549398;75;1573;-56
2023/10/03 02:34:21;;;;;;;;;;;22.10;55.20;;;;;;1542083;75;1922;-57
2023/10/03 02:36:23;;;;;;;;;;;22.10;55.50;;;;;;1544137;76;1545;-55
2023/10/03 02:38:25;;;;;;;;;;;22.10;55.60;;;;;;1549035;76;718;-59
2023/10/03 02:40:29;;;;;;;;;;;22.10;55.50;;;;;;1543632;76;1151;-58
2023/10/03 02:42:31;;;;;;;;;;;22.10;55.90;;;;;;1551103;75;687;-58
2023/10/03 02:44:32;;;;;;;;;;;22.10;55.60;;;;;;1547321;75;708;-59
2023/10/03 02:46:34;;;;;;;;;;;22.10;55.20;;;;;;1547623;75;729;-57
2023/10/03 02:48:36;;;;;;;;;;;22.10;55.50;;;;;;1547471;75;712;-60
2023/10/03 02:50:39;;;;;;;;;;;22.10;55.30;;;;;;1543696;75;1570;-59
2023/10/03 02:52:41;;;;;;;;;;;22.10;55.20;;;;;;1543852;75;753;-60
2023/10/03 02:54:43;;;;;;;;;;;22.20;55.20;;;;;;1548319;75;1938;-58
2023/10/03 02:56:46;;;;;;;;;;;22.10;55.30;;;;;;1550237;75;662;-60
2023/10/03 02:58:48;;;;;;;;;;;22.10;55.70;;;;;;1541687;75;627;-58
2023/10/03 03:00:53;;;;;;;;;;;22.10;55.10;;;;;;1546151;75;1150;-61
2023/10/03 03:02:56;;;;;;;;;;;22.10;55.00;;;;;;1548392;75;770;-58
2023/10/03 03:04:59;;;;;;;;;;;22.10;54.70;;;;;;1545842;75;1189;-61
2023/10/03 03:07:04;;;;;;;;;;;22.10;54.50;;;;;;1546216;75;813;-57
2023/10/03 03:09:07;;;;;;;;;;;22.10;54.20;;;;;;1544549;75;1649;-59
2023/10/03 03:11:09;;;;;;;;;;;22.10;54.20;;;;;;1549623;75;1154;-59
2023/10/03 03:13:15;;;;;;;;;;;22.10;54.20;;;;;;1544475;75;858;-58
2023/10/03 03:15:22;;;;;;;;;;;22.10;54.20;;;;;;1545693;75;1917;-57
2023/10/03 03:17:21;;;;;;;;;;;22.10;54.40;;;;;;1549722;75;1485;-61
2023/10/03 03:19:26;;;;;;;;;;;22.10;55.00;;;;;;1540957;75;657;-56
2023/10/03 03:21:32;;;;;;;;;;;22.10;55.30;;;;;;1552060;75;1666;-54
2023/10/03 03:24:33;;;;;;;;;;;22.10;56.10;;;;;;1552917;75;997;-61
2023/10/03 03:25:38;;;;;;;;;;;22.10;56.30;;;;;;1519584;75;1421;-61
2023/10/03 03:27:41;;;;;;;;;;;22.20;54.40;;;;;;1551569;75;707;-57
2023/10/03 03:31:47;;;;;;;;;;;22.10;53.70;;;;;;1495623;75;1545;-60
2023/10/03 03:33:50;;;;;;;;;;;22.00;53.50;;;;;;1551268;75;769;-57
2023/10/03 03:35:52;;;;;;;;;;;22.10;53.40;;;;;;1543936;75;1885;-59
2023/10/03 03:37:57;;;;;;;;;;;22.10;53.40;;;;;;1547933;75;769;-58
2023/10/03 03:40:10;;;;;;;;;;;22.00;53.60;;;;;;1547439;75;677;-58
2023/10/03 03:42:03;;;;;;;;;;;22.10;54.00;;;;;;1553298;75;1736;-61
2023/10/03 03:44:11;;;;;;;;;;;22.10;54.30;;;;;;1546481;75;738;-61
2023/10/03 03:46:09;;;;;;;;;;;22.10;53.60;;;;;;1542589;75;1522;-60
2023/10/03 03:48:11;;;;;;;;;;;22.10;53.20;;;;;;1549476;76;689;-61
2023/10/03 03:50:16;;;;;;;;;;;22.10;53.00;;;;;;1542743;75;1154;-61
2023/10/03 03:52:16;;;;;;;;;;;22.10;52.80;;;;;;1547295;75;1504;-56
2023/10/03 03:54:19;;;;;;;;;;;22.10;52.90;;;;;;1541509;75;1935;-58
2023/10/03 03:56:21;;;;;;;;;;;22.10;53.10;;;;;;1549715;75;826;-60
2023/10/03 03:58:23;;;;;;;;;;;22.10;52.60;;;;;;1551890;75;727;-55
2023/10/03 04:00:28;;;;;;;;;;;22.00;53.00;;;;;;1546090;75;1587;-55
2023/10/03 04:02:30;;;;;;;;;;;22.00;52.60;;;;;;1539591;75;1691;-58
2023/10/03 04:04:32;;;;;;;;;;;22.00;52.80;;;;;;1544357;75;708;-61
2023/10/03 04:06:34;;;;;;;;;;;22.10;52.90;;;;;;1546991;75;708;-53
2023/10/03 04:08:38;;;;;;;;;;;22.10;52.60;;;;;;1547571;75;821;-60
2023/10/03 04:10:40;;;;;;;;;;;22.10;53.10;;;;;;1552248;75;1131;-59
2023/10/03 04:12:42;;;;;;;;;;;22.00;52.70;;;;;;1516299;77;1425;-57
2023/10/03 04:14:44;;;;;;;;;;;22.10;52.80;;;;;;1548447;75;1949;-56
2023/10/03 04:16:47;;;;;;;;;;;22.00;52.70;;;;;;1550630;75;731;-60
2023/10/03 04:18:49;;;;;;;;;;;22.10;53.00;;;;;;1549788;75;2014;-61
2023/10/03 04:20:51;;;;;;;;;;;22.00;52.80;;;;;;1548148;75;1151;-60
2023/10/03 04:22:53;;;;;;;;;;;22.10;52.80;;;;;;1551770;75;724;-58
2023/10/03 04:24:55;;;;;;;;;;;22.00;53.10;;;;;;1547037;75;744;-59
2023/10/03 04:26:58;;;;;;;;;;;22.00;52.60;;;;;;1548423;75;674;-57
2023/10/03 04:29:00;;;;;;;;;;;22.00;52.00;;;;;;1545485;75;1548;-60
2023/10/03 04:31:02;;;;;;;;;;;22.00;51.90;;;;;;1544345;75;1170;-60
2023/10/03 04:33:04;;;;;;;;;;;22.00;52.00;;;;;;1548367;75;927;-61
2023/10/03 04:35:11;;;;;;;;;;;22.10;52.30;;;;;;1543106;76;1932;-58
2023/10/03 04:37:10;;;;;;;;;;;22.10;52.50;;;;;;1549689;75;1649;-57
2023/10/03 04:39:12;;;;;;;;;;;22.00;52.30;;;;;;1546002;75;809;-60
2023/10/03 04:41:14;;;;;;;;;;;22.00;52.20;;;;;;1552150;75;1154;-56
2023/10/03 04:43:15;;;;;;;;;;;22.00;52.70;;;;;;1542638;75;1550;-60
2023/10/03 04:45:19;;;;;;;;;;;22.00;52.50;;;;;;1550044;75;715;-61
2023/10/03 04:47:22;;;;;;;;;;;22.00;52.60;;;;;;1552024;75;719;-59
2023/10/03 04:49:23;;;;;;;;;;;22.10;53.10;;;;;;1545250;75;578;-57
2023/10/03 04:51:25;;;;;;;;;;;22.00;52.50;;;;;;1543998;75;1166;-59
2023/10/03 04:53:27;;;;;;;;;;;22.00;52.20;;;;;;1554408;75;705;-58
2023/10/03 04:55:29;;;;;;;;;;;22.00;52.10;;;;;;1545859;75;1917;-58
2023/10/03 04:57:31;;;;;;;;;;;22.00;52.30;;;;;;1550996;75;1644;-58
2023/10/03 04:59:33;;;;;;;;;;;22.10;52.40;;;;;;1550686;75;739;-59
2023/10/03 05:01:35;;;;;;;;;;;22.00;52.80;;;;;;1548592;75;1163;-62
2023/10/03 05:03:38;;;;;;;;;;;22.10;52.40;;;;;;1546513;75;734;-58
2023/10/03 05:05:40;;;;;;;;;;;22.00;52.20;;;;;;1548091;75;786;-56
2023/10/03 05:07:42;;;;;;;;;;;22.00;52.30;;;;;;1550344;75;682;-59
2023/10/03 05:09:44;;;;;;;;;;;22.00;52.60;;;;;;1550618;75;791;-57
2023/10/03 05:11:48;;;;;;;;;;;22.00;51.70;;;;;;1548413;75;1508;-63
2023/10/03 05:13:49;;;;;;;;;;;22.00;52.70;;;;;;1550408;75;1685;-59
2023/10/03 05:15:53;;;;;;;;;;;22.00;53.50;;;;;;1548616;75;1947;-58
2023/10/03 05:17:56;;;;;;;;;;;22.10;53.80;;;;;;1544245;75;1337;-60
2023/10/03 05:19:59;;;;;;;;;;;22.00;54.80;;;;;;1551043;75;735;-60
2023/10/03 05:22:02;;;;;;;;;;;22.00;52.40;;;;;;1548876;75;1119;-55
2023/10/03 05:24:05;;;;;;;;;;;22.00;52.50;;;;;;1551327;75;1328;-59
2023/10/03 05:26:07;;;;;;;;;;;22.00;52.40;;;;;;1553027;75;734;-60
2023/10/03 05:28:12;;;;;;;;;;;22.00;52.30;;;;;;1546641;75;717;-61
2023/10/03 05:30:18;;;;;;;;;;;22.00;52.30;;;;;;1550426;75;1125;-60
2023/10/03 05:32:17;;;;;;;;;;;22.00;52.30;;;;;;1545880;75;1269;-58
2023/10/03 05:34:20;;;;;;;;;;;22.10;52.60;;;;;;1545366;75;711;-62
2023/10/03 05:36:22;;;;;;;;;;;22.00;52.10;;;;;;1552079;75;1903;-59
2023/10/03 05:38:24;;;;;;;;;;;22.00;52.10;;;;;;1555579;75;1541;-59
2023/10/03 05:40:26;;;;;;;;;;;22.00;51.80;;;;;;1545207;75;1144;-59
2023/10/03 05:42:28;;;;;;;;;;;22.00;51.60;;;;;;1547707;75;730;-59
2023/10/03 05:44:32;;;;;;;;;;;22.00;52.10;;;;;;1544745;75;763;-58
2023/10/03 05:46:34;;;;;;;;;;;22.00;52.00;;;;;;1542280;75;780;-60
2023/10/03 05:48:37;;;;;;;;;;;22.00;51.50;;;;;;1552933;75;698;-58
2023/10/03 05:50:38;;;;;;;;;;;22.00;51.50;;;;;;1545072;75;1123;-61
2023/10/03 05:52:41;;;;;;;;;;;22.00;52.10;;;;;;1544387;75;1162;-60
2023/10/03 05:54:44;;;;;;;;;;;22.00;52.00;;;;;;1548415;75;682;-58
2023/10/03 05:56:46;;;;;;;;;;;22.00;52.70;;;;;;1549518;75;1906;-58
2023/10/03 05:58:48;;;;;;;;;;;22.00;52.60;;;;;;1550399;76;768;-57
2023/10/03 06:00:50;;;;;;;;;;;22.00;52.60;;;;;;1548359;75;1144;-59
2023/10/03 06:02:52;;;;;;;;;;;22.00;52.10;;;;;;1549237;75;703;-57
2023/10/03 06:04:55;;;;;;;;;;;22.00;52.10;;;;;;1543849;75;835;-59
2023/10/03 06:06:57;;;;;;;;;;;22.00;52.20;;;;;;1546658;75;1549;-58
2023/10/03 06:08:58;;;;;;;;;;;22.00;52.40;;;;;;1548368;75;682;-58
2023/10/03 06:11:03;;;;;;;;;;;22.00;51.80;;;;;;1551960;75;1142;-58
2023/10/03 06:13:09;;;;;;;;;;;22.00;52.10;;;;;;1545341;75;1713;-58
2023/10/03 06:15:08;;;;;;;;;;;22.00;51.80;;;;;;1545962;75;1931;-59
2023/10/03 06:17:12;;;;;;;;;;;22.00;52.00;;;;;;1550764;75;736;-60
2023/10/03 06:19:14;;;;;;;;;;;22.00;52.50;;;;;;1546755;76;1643;-59
2023/10/03 06:21:16;;;;;;;;;;;22.00;52.10;;;;;;1543972;75;1355;-59
2023/10/03 06:23:17;;;;;;;;;;;22.00;52.10;;;;;;1551981;75;690;-57
2023/10/03 06:25:19;;;;;;;;;;;22.00;52.00;;;;;;1548653;75;699;-58
2023/10/03 06:27:21;;;;;;;;;;;22.00;52.30;;;;;;1547737;76;741;-59
2023/10/03 06:29:23;;;;;;;;;;;22.00;52.30;;;;;;1545661;75;803;-59
2023/10/03 06:31:25;;;;;;;;;;;22.00;52.50;;;;;;1550665;76;1182;-58
2023/10/03 06:33:27;;;;;;;;;;;22.00;52.50;;;;;;1539522;75;733;-59
2023/10/03 06:35:29;;;;;;;;;;;22.00;53.00;;;;;;1548186;75;1924;-61
2023/10/03 06:37:31;;;;;;;;;;;22.00;53.90;;;;;;1547611;75;747;-61
2023/10/03 06:39:34;;;;;;;;;;;22.00;54.50;;;;;;1516733;77;692;-61
2023/10/03 06:41:38;;;;;;;;;;;22.10;52.90;;;;;;1548773;76;1141;-60
2023/10/03 06:43:40;;;;;;;;;;;22.10;53.80;;;;;;1544297;75;763;-60
2023/10/03 06:45:42;;;;;;;;;;;22.10;53.20;;;;;;1549541;75;733;-62
2023/10/03 06:47:44;;;;;;;;;;;22.00;53.90;;;;;;1545332;76;785;-61
2023/10/03 06:49:46;;;;;;;;;;;22.10;53.00;;;;;;1550055;75;1577;-61
2023/10/03 06:51:50;;;;;;;;;;;22.10;53.00;;;;;;1550184;75;1176;-59
2023/10/03 06:53:52;;;;;;;;;;;22.10;53.10;;;;;;1553624;75;832;-57
2023/10/03 06:55:57;;;;;;;;;;;22.00;53.00;;;;;;1548965;75;1902;-58
2023/10/03 06:58:00;;;;;;;;;;;22.10;52.80;;;;;;1545173;75;1535;-60
2023/10/03 07:00:01;;;;;;;;;;;22.00;53.10;;;;;;1548456;75;1666;-59
2023/10/03 07:02:04;;;;;;;;;;;22.00;53.50;;;;;;1549953;75;1137;-58
2023/10/03 07:04:10;;;;;;;;;;;22.00;53.10;;;;;;1550496;75;1625;-61
2023/10/03 07:06:09;;;;;;;;;;;22.10;52.90;;;;;;1550723;76;1134;-61
2023/10/03 07:08:12;;;;;;;;;;;22.10;52.90;;;;;;1547470;76;790;-57
2023/10/03 07:10:14;;;;;;;;;;;22.10;52.90;;;;;;1548385;75;1134;-59
2023/10/03 07:12:17;;;;;;;;;;;22.00;53.00;;;;;;1549574;75;794;-60
2023/10/03 07:14:19;;;;;;;;;;;22.00;53.50;;;;;;1552505;75;720;-58
2023/10/03 07:16:21;;;;;;;;;;;22.10;54.00;;;;;;1548748;75;1916;-60
2023/10/03 07:18:22;;;;;;;;;;;22.10;53.60;;;;;;1547150;75;1592;-55
2023/10/03 07:20:24;;;;;;;;;;;22.10;54.20;;;;;;1547923;75;1141;-59
2023/10/03 07:22:26;;;;;;;;;;;22.00;54.60;;;;;;1555482;75;720;-56
2023/10/03 07:24:29;;;;;;;;;;;22.10;54.10;;;;;;1550976;75;670;-57
2023/10/03 07:26:31;;;;;;;;;;;22.10;53.80;;;;;;1547833;75;755;-60
2023/10/03 07:28:34;;;;;;;;;;;22.10;55.20;;;;;;1546541;75;731;-62
2023/10/03 07:30:36;;;;;;;;;;;22.10;53.70;;;;;;1547047;75;1559;-60
2023/10/03 07:32:38;;;;;;;;;;;22.00;54.30;;;;;;1549217;75;1044;-60
2023/10/03 07:34:45;;;;;;;;;;;22.10;56.30;;;;;;1546031;75;711;-61
2023/10/03 07:36:47;;;;;;;;;;;22.00;56.70;;;;;;1552293;75;1942;-59
2023/10/03 07:38:49;;;;;;;;;;;22.10;57.10;;;;;;1544392;75;755;-58
2023/10/03 07:40:51;;;;;;;;;;;22.10;57.30;;;;;;1546374;75;1170;-58
2023/10/03 07:42:53;;;;;;;;;;;22.10;57.50;;;;;;1548557;75;719;-59
2023/10/03 07:44:56;;;;;;;;;;;22.00;57.40;;;;;;1550750;75;1351;-61
2023/10/03 07:46:57;;;;;;;;;;;22.10;57.80;;;;;;1549490;75;770;-58
2023/10/03 07:49:01;;;;;;;;;;;22.10;57.80;;;;;;1547466;75;847;-58
2023/10/03 07:51:05;;;;;;;;;;;22.00;57.30;;;;;;1543755;75;2027;-58
2023/10/03 07:53:11;;;;;;;;;;;22.10;57.70;;;;;;1546873;75;1528;-58
2023/10/03 07:55:11;;;;;;;;;;;22.10;58.00;;;;;;1546615;75;1549;-58
2023/10/03 07:57:13;;;;;;;;;;;22.10;58.10;;;;;;1548976;75;1929;-58
2023/10/03 07:59:15;;;;;;;;;;;22.10;58.20;;;;;;1545932;75;1618;-61
2023/10/03 08:01:17;;;;;;;;;;;22.10;58.10;;;;;;1547876;75;1172;-56
2023/10/03 08:03:19;;;;;;;;;;;22.10;58.20;;;;;;1551505;75;791;-61
2023/10/03 08:05:27;;;;;;;;;;;22.10;58.10;;;;;;1550619;75;740;-62
2023/10/03 08:07:25;;;;;;;;;;;22.10;58.00;;;;;;1539442;75;1408;-58
2023/10/03 08:09:27;;;;;;;;;;;22.10;58.10;;;;;;1549582;76;784;-60
2023/10/03 08:11:29;;;;;;;;;;;22.10;58.20;;;;;;1542527;75;1095;-60
2023/10/03 08:13:31;;;;;;;;;;;22.10;58.30;;;;;;1545871;75;1524;-59
2023/10/03 08:15:32;;;;;;;;;;;22.10;58.40;;;;;;1544429;75;731;-56
2023/10/03 08:17:36;;;;;;;;;;;22.10;58.80;;;;;;1552719;75;1966;-59
2023/10/03 08:19:40;;;;;;;;;;;22.10;58.90;;;;;;1540268;75;740;-61
2023/10/03 08:21:43;;;;;;;;;;;22.10;58.70;;;;;;1548818;75;1684;-60
2023/10/03 08:23:51;;;;;;;;;;;22.10;58.80;;;;;;1546930;75;1688;-60
2023/10/03 08:25:48;;;;;;;;;;;22.10;58.80;;;;;;1552849;76;1628;-57
2023/10/03 08:27:50;;;;;;;;;;;22.10;58.70;;;;;;1546551;75;1540;-60
2023/10/03 08:29:57;;;;;;;;;;;22.20;58.90;;;;;;1546365;75;788;-60
2023/10/03 08:31:59;;;;;;;;;;;22.10;58.90;;;;;;1546943;76;1659;-58
2023/10/03 08:34:01;;;;;;;;;;;22.10;59.00;;;;;;1545196;75;665;-58
2023/10/03 08:36:14;;;;;;;;;;;22.10;59.00;;;;;;1547331;75;1928;-58
2023/10/03 08:38:13;;;;;;;;;;;22.10;58.90;;;;;;1549150;75;1739;-60
2023/10/03 08:40:22;;;;;;;;;;;22.10;58.90;;;;;;1545021;75;1838;-59
2023/10/03 08:42:19;;;;;;;;;;;22.20;58.90;;;;;;1541065;75;1528;-58
2023/10/03 08:44:22;;;;;;;;;;;22.10;58.90;;;;;;1539732;75;1793;-62
2023/10/03 08:46:25;;;;;;;;;;;22.10;58.90;;;;;;1545802;75;684;-57
2023/10/03 08:48:28;;;;;;;;;;;22.10;58.90;;;;;;1551620;75;714;-58
2023/10/03 08:50:34;;;;;;;;;;;22.10;59.00;;;;;;1548971;75;1141;-58
2023/10/03 08:52:46;;;;;;;;;;;22.10;58.90;;;;;;1548584;75;766;-60
2023/10/03 08:54:46;;;;;;;;;;;22.10;58.90;;;;;;1549867;75;1486;-60
2023/10/03 08:56:47;;;;;;;;;;;22.10;58.90;;;;;;1554325;76;1924;-60
2023/10/03 08:58:50;;;;;;;;;;;22.20;58.90;;;;;;1554081;75;738;-61
2023/10/03 09:00:58;;;;;;;;;;;22.20;59.00;;;;;;1546534;75;1177;-59
2023/10/03 09:03:09;;;;;;;;;;;22.20;59.00;;;;;;1547913;75;1575;-58
2023/10/03 09:05:00;;;;;;;;;;;22.20;59.00;;;;;;1539049;75;1619;-59
2023/10/03 09:07:08;;;;;;;;;;;22.20;59.00;;;;;;1541868;76;908;-59
2023/10/03 09:09:08;;;;;;;;;;;22.20;58.10;;;;;;1546745;75;1440;-59
2023/10/03 09:11:13;;;;;;;;;;;22.20;57.20;;;;;;1548587;75;1342;-56
2023/10/03 09:13:15;;;;;;;;;;;22.30;55.50;;;;;;1545230;75;1510;-57
2023/10/03 09:15:17;;;;;;;;;;;22.20;56.20;;;;;;1548588;74;1349;-61
2023/10/03 09:17:20;;;;;;;;;;;22.30;54.40;;;;;;1545032;75;1934;-58
2023/10/03 09:19:25;;;;;;;;;;;22.30;54.40;;;;;;1543065;75;1361;-55
2023/10/03 09:21:30;;;;;;;;;;;22.40;53.50;;;;;;1544088;75;1304;-57
2023/10/03 09:23:41;;;;;;;;;;;22.40;53.70;;;;;;1550593;75;1473;-57
2023/10/03 09:25:48;;;;;;;;;;;22.40;53.20;;;;;;1546838;75;1274;-58
2023/10/03 09:27:46;;;;;;;;;;;22.40;52.50;;;;;;1545728;75;1638;-58
2023/10/03 09:29:52;;;;;;;;;;;22.40;52.10;;;;;;1542602;75;1339;-59
2023/10/03 09:31:52;;;;;;;;;;;22.40;52.50;;;;;;1543991;75;1256;-61
2023/10/03 09:33:57;;;;;;;;;;;22.40;52.60;;;;;;1535721;75;1307;-56
2023/10/03 09:35:58;;;;;;;;;;;22.40;51.40;;;;;;1546798;76;1570;-57
2023/10/03 09:38:04;;;;;;;;;;;22.40;52.00;;;;;;1550467;75;1928;-56
2023/10/03 09:40:16;;;;;;;;;;;22.40;51.70;;;;;;1544497;75;1598;-57
2023/10/03 09:42:15;;;;;;;;;;;22.40;52.10;;;;;;1544138;75;1781;-58
2023/10/03 09:44:11;;;;;;;;;;;22.40;52.10;;;;;;1547771;75;1679;-61
2023/10/03 09:46:15;;;;;;;;;;;22.40;51.90;;;;;;1540644;75;1274;-59
2023/10/03 09:48:17;;;;;;;;;;;22.40;51.90;;;;;;1546712;75;1262;-60
2023/10/03 09:50:18;;;;;;;;;;;22.40;51.30;;;;;;1549337;75;1291;-56
2023/10/03 09:52:25;;;;;;;;;;;22.40;51.70;;;;;;1546618;75;1511;-57
2023/10/03 09:54:36;;;;;;;;;;;22.40;51.60;;;;;;1542714;75;1405;-56
2023/10/03 09:56:36;;;;;;;;;;;22.40;51.70;;;;;;1536828;75;1940;-60
2023/10/03 09:58:34;;;;;;;;;;;22.50;50.90;;;;;;1546859;75;1621;-58
2023/10/03 10:00:39;;;;;;;;;;;22.40;51.20;;;;;;1547320;75;1353;-59
2023/10/03 10:02:47;;;;;;;;;;;22.40;51.40;;;;;;1547408;75;1360;-61
2023/10/03 10:04:46;;;;;;;;;;;22.40;51.30;;;;;;1543515;74;1575;-60
2023/10/03 10:06:52;;;;;;;;;;;22.50;51.20;;;;;;1546413;75;1306;-59
2023/10/03 10:08:58;;;;;;;;;;;22.40;51.30;;;;;;1550889;75;1224;-55
2023/10/03 10:11:09;;;;;;;;;;;22.40;51.40;;;;;;1543307;75;2068;-60
2023/10/03 10:13:13;;;;;;;;;;;22.40;51.50;;;;;;1542608;75;1567;-57
2023/10/03 10:15:17;;;;;;;;;;;22.50;51.60;;;;;;1549024;75;1331;-60
2023/10/03 10:17:21;;;;;;;;;;;22.40;51.40;;;;;;1548766;75;1921;-58
2023/10/03 10:19:24;;;;;;;;;;;22.40;50.40;;;;;;1544542;75;1508;-55
2023/10/03 10:21:30;;;;;;;;;;;22.50;49.40;;;;;;1542605;75;1588;-58
2023/10/03 10:23:35;;;;;;;;;;;22.40;50.10;;;;;;1547508;75;1370;-60
2023/10/03 10:25:43;;;;;;;;;;;22.50;50.20;;;;;;1544666;75;1376;-58
2023/10/03 10:27:45;;;;;;;;;;;22.50;50.10;;;;;;1548728;75;1312;-55
2023/10/03 10:30:00;;;;;;;;;;;22.50;49.10;;;;;;1547255;75;1242;-59
2023/10/03 10:32:06;;;;;;;;;;;22.50;49.70;;;;;;1545901;75;1239;-58
2023/10/03 10:34:21;;;;;;;;;;;22.50;49.60;;;;;;1544031;76;1574;-57
2023/10/03 10:36:22;;;;;;;;;;;22.50;48.20;;;;;;1539214;75;980;-59
2023/10/03 10:38:35;;;;;;;;;;;22.50;48.50;;;;;;1519787;77;1972;-59
2023/10/03 10:40:39;;;;;;;;;;;22.50;48.90;;;;;;1515760;77;1226;-59
2023/10/03 10:43:00;;;;;;;;;;;22.50;48.50;;;;;;1516013;77;1880;-57
2023/10/03 10:45:13;;;;;;;;;;;22.50;47.50;;;;;;1495375;78;1130;-58
2023/10/03 10:47:10;;;;;;;;;;;22.50;47.90;;;;;;1516862;77;1560;-58
2023/10/03 10:49:44;;;;;;;;;;;22.50;48.10;;;;;;1517692;76;1217;-60
2023/10/03 10:51:44;;;;;;;;;;;22.50;48.10;;;;;;1537001;75;1496;-59
2023/10/03 10:53:47;;;;;;;;;;;22.50;48.70;;;;;;1537971;76;1609;-58
2023/10/03 10:55:49;;;;;;;;;;;22.50;48.80;;;;;;1547506;75;1297;-59
2023/10/03 10:58:12;;;;;;;;;;;22.50;49.20;;;;;;1548035;75;1912;-59
2023/10/03 11:00:17;;;;;;;;;;;22.50;49.20;;;;;;1546798;75;1597;-58
2023/10/03 11:02:22;;;;;;;;;;;22.50;49.50;;;;;;1546044;75;1289;-62
2023/10/03 11:04:24;;;;;;;;;;;22.40;49.50;;;;;;1540105;76;1390;-58
2023/10/03 11:06:26;;;;;;;;;;;22.50;49.50;;;;;;1549507;75;1487;-58
2023/10/03 11:08:28;;;;;;;;;;;22.40;49.80;;;;;;1549152;75;1244;-59
2023/10/03 11:10:30;;;;;;;;;;;22.50;50.10;;;;;;1544450;75;1277;-60
2023/10/03 11:12:31;;;;;;;;;;;22.50;49.80;;;;;;1543635;75;1122;-59
2023/10/03 11:14:34;;;;;;;;;;;22.40;49.80;;;;;;1551652;75;1438;-59
2023/10/03 11:16:36;;;;;;;;;;;22.50;49.70;;;;;;1542945;75;1481;-59
2023/10/03 11:18:38;;;;;;;;;;;22.50;49.70;;;;;;1550915;75;1925;-61
2023/10/03 11:20:40;;;;;;;;;;;22.40;49.30;;;;;;1542695;75;1434;-58
2023/10/03 11:22:44;;;;;;;;;;;22.50;49.30;;;;;;1547990;75;1158;-59
2023/10/03 11:24:46;;;;;;;;;;;22.40;49.20;;;;;;1543732;75;1300;-59
2023/10/03 11:26:51;;;;;;;;;;;22.50;49.30;;;;;;1542388;75;1280;-59
2023/10/03 11:28:53;;;;;;;;;;;22.40;48.90;;;;;;1536765;75;1307;-59
2023/10/03 11:31:04;;;;;;;;;;;22.50;49.00;;;;;;1535923;75;1560;-59
2023/10/03 11:33:06;;;;;;;;;;;22.50;49.00;;;;;;1538208;76;1227;-58
2023/10/03 11:35:16;;;;;;;;;;;22.40;48.90;;;;;;1551253;75;1284;-62
2023/10/03 11:37:28;;;;;;;;;;;22.50;49.20;;;;;;1542061;75;1953;-58
2023/10/03 11:39:32;;;;;;;;;;;22.50;49.20;;;;;;1547803;76;1495;-59
2023/10/03 11:41:34;;;;;;;;;;;22.50;49.30;;;;;;1548686;75;1920;-59
2023/10/03 11:43:38;;;;;;;;;;;22.40;49.10;;;;;;1551327;75;1179;-60
2023/10/03 11:45:40;;;;;;;;;;;22.50;49.00;;;;;;1549747;75;2073;-59
2023/10/03 11:47:42;;;;;;;;;;;22.50;49.60;;;;;;1550333;75;1481;-58
2023/10/03 11:49:44;;;;;;;;;;;22.40;49.30;;;;;;1548512;75;1306;-59
2023/10/03 11:51:47;;;;;;;;;;;22.40;49.40;;;;;;1550322;75;1288;-60
2023/10/03 11:53:49;;;;;;;;;;;22.40;49.20;;;;;;1547784;75;1124;-59
2023/10/03 11:55:52;;;;;;;;;;;22.40;49.40;;;;;;1546512;75;1065;-59
2023/10/03 11:57:54;;;;;;;;;;;22.50;49.20;;;;;;1543479;75;1933;-59
2023/10/03 11:59:56;;;;;;;;;;;22.50;49.10;;;;;;1547799;75;1324;-60
2023/10/03 12:01:59;;;;;;;;;;;22.50;49.10;;;;;;1541814;75;1418;-58
2023/10/03 12:04:02;;;;;;;;;;;22.50;49.40;;;;;;1534673;75;1111;-59
2023/10/03 12:06:04;;;;;;;;;;;22.50;49.40;;;;;;1540627;75;1325;-58
2023/10/03 12:08:06;;;;;;;;;;;22.50;49.50;;;;;;1545141;75;1212;-58
2023/10/03 12:10:12;;;;;;;;;;;22.50;49.50;;;;;;1552327;75;1324;-60
2023/10/03 12:12:13;;;;;;;;;;;22.40;49.20;;;;;;1547838;75;1610;-58
2023/10/03 12:14:15;;;;;;;;;;;22.40;49.00;;;;;;1539309;75;1312;-59